sensor_id;sensor_type;location;lat;lon;timestamp;temperature;humidity
14357;DHT22;7262;48.764;9.166;2022-07-22T00:01:46;19.40;99.90
14357;DHT22;7262;48.764;9.166;2022-07-22T00:04:14;19.30;99.90
14357;DHT22;7262;48.764;9.166;2022-07-22T00:06:41;19.30;99.90
14357;DHT22;7262;48.764;9.166;2022-07-22T00:09:08;19.30;99.90
14357;DHT22;7262;48.764;9.166;2022-07-22T00:11:35;19.30;99.90
14357;DHT22;7262;48.764;9.166;2022-07-22T00:14:02;19.40;99.90
14357;DHT22;7262;48.764;9.166;2022-07-22T00:16:29;19.40;99.90
14357;DHT22;7262;48.764;9.166;2022-07-22T00:18:57;19.30;99.90
14357;DHT22;7262;48.764;9.166;2022-07-22T00:21:25;19.40;99.90
14357;DHT22;7262;48.764;9.166;2022-07-22T00:23:52;19.40;99.90
14357;DHT22;7262;48.764;9.166;2022-07-22T00:26:19;19.30;99.90
14357;DHT22;7262;48.764;9.166;2022-07-22T00:28:47;19.20;99.90
14357;DHT22;7262;48.764;9.166;2022-07-22T00:31:13;19.30;99.90
14357;DHT22;7262;48.764;9.166;2022-07-22T00:33:40;19.20;99.90
14357;DHT22;7262;48.764;9.166;2022-07-22T00:36:11;19.20;99.90
14357;DHT22;7262;48.764;9.166;2022-07-22T00:38:38;19.10;99.90
14357;DHT22;7262;48.764;9.166;2022-07-22T00:41:05;19.10;99.90
14357;DHT22;7262;48.764;9.166;2022-07-22T00:43:53;19.00;99.90
14357;DHT22;7262;48.764;9.166;2022-07-22T00:46:20;18.90;99.90
14357;DHT22;7262;48.764;9.166;2022-07-22T00:48:47;18.80;99.90
14357;DHT22;7262;48.764;9.166;2022-07-22T00:51:16;18.80;99.90
14357;DHT22;7262;48.764;9.166;2022-07-22T00:53:45;18.80;99.90
14357;DHT22;7262;48.764;9.166;2022-07-22T00:56:13;18.70;99.90
14357;DHT22;7262;48.764;9.166;2022-07-22T00:58:40;18.80;99.90
14357;DHT22;7262;48.764;9.166;2022-07-22T01:01:07;18.80;99.90
14357;DHT22;7262;48.764;9.166;2022-07-22T01:03:35;18.80;99.90
14357;DHT22;7262;48.764;9.166;2022-07-22T01:06:02;18.90;99.90
14357;DHT22;7262;48.764;9.166;2022-07-22T01:08:30;18.90;99.90
14357;DHT22;7262;48.764;9.166;2022-07-22T01:11:06;18.80;99.90
14357;DHT22;7262;48.764;9.166;2022-07-22T01:13:32;18.70;99.90
14357;DHT22;7262;48.764;9.166;2022-07-22T01:15:59;18.70;99.90
14357;DHT22;7262;48.764;9.166;2022-07-22T01:18:26;18.70;99.90
14357;DHT22;7262;48.764;9.166;2022-07-22T01:20:54;18.60;99.90
14357;DHT22;7262;48.764;9.166;2022-07-22T01:23:21;18.50;99.90
14357;DHT22;7262;48.764;9.166;2022-07-22T01:25:48;18.50;99.90
14357;DHT22;7262;48.764;9.166;2022-07-22T01:28:15;18.50;99.90
14357;DHT22;7262;48.764;9.166;2022-07-22T01:30:42;18.50;99.90
14357;DHT22;7262;48.764;9.166;2022-07-22T01:33:09;18.60;99.90
14357;DHT22;7262;48.764;9.166;2022-07-22T01:35:36;18.60;99.90
14357;DHT22;7262;48.764;9.166;2022-07-22T01:38:06;18.60;99.90
14357;DHT22;7262;48.764;9.166;2022-07-22T01:40:32;18.60;99.90
14357;DHT22;7262;48.764;9.166;2022-07-22T01:42:59;18.60;99.90
14357;DHT22;7262;48.764;9.166;2022-07-22T01:45:26;18.60;99.90
14357;DHT22;7262;48.764;9.166;2022-07-22T01:47:53;18.60;99.90
14357;DHT22;7262;48.764;9.166;2022-07-22T01:50:20;18.60;99.90
14357;DHT22;7262;48.764;9.166;2022-07-22T01:52:47;18.50;99.90
14357;DHT22;7262;48.764;9.166;2022-07-22T01:55:15;18.50;99.90
14357;DHT22;7262;48.764;9.166;2022-07-22T01:57:42;18.40;99.90
14357;DHT22;7262;48.764;9.166;2022-07-22T02:00:10;18.40;99.90
14357;DHT22;7262;48.764;9.166;2022-07-22T02:02:37;18.40;99.90
14357;DHT22;7262;48.764;9.166;2022-07-22T02:05:06;18.40;99.90
14357;DHT22;7262;48.764;9.166;2022-07-22T02:07:33;18.30;99.90
14357;DHT22;7262;48.764;9.166;2022-07-22T02:09:59;18.40;99.90
14357;DHT22;7262;48.764;9.166;2022-07-22T02:12:28;18.30;99.90
14357;DHT22;7262;48.764;9.166;2022-07-22T02:14:56;18.30;99.90
14357;DHT22;7262;48.764;9.166;2022-07-22T02:17:23;18.30;99.90
14357;DHT22;7262;48.764;9.166;2022-07-22T02:19:49;18.20;99.90
14357;DHT22;7262;48.764;9.166;2022-07-22T02:22:16;18.20;99.90
14357;DHT22;7262;48.764;9.166;2022-07-22T02:24:46;18.20;99.90
14357;DHT22;7262;48.764;9.166;2022-07-22T02:27:13;18.20;99.90
14357;DHT22;7262;48.764;9.166;2022-07-22T02:29:44;18.20;99.90
14357;DHT22;7262;48.764;9.166;2022-07-22T02:32:10;18.10;99.90
14357;DHT22;7262;48.764;9.166;2022-07-22T02:34:37;18.10;99.90
14357;DHT22;7262;48.764;9.166;2022-07-22T02:37:04;18.10;99.90
14357;DHT22;7262;48.764;9.166;2022-07-22T02:39:31;18.10;99.90
14357;DHT22;7262;48.764;9.166;2022-07-22T02:41:58;18.00;99.90
14357;DHT22;7262;48.764;9.166;2022-07-22T02:44:25;18.00;99.90
14357;DHT22;7262;48.764;9.166;2022-07-22T02:46:53;18.00;99.90
14357;DHT22;7262;48.764;9.166;2022-07-22T02:49:20;18.00;99.90
14357;DHT22;7262;48.764;9.166;2022-07-22T02:51:47;18.00;99.90
14357;DHT22;7262;48.764;9.166;2022-07-22T02:54:13;18.00;99.90
14357;DHT22;7262;48.764;9.166;2022-07-22T02:56:40;17.90;99.90
14357;DHT22;7262;48.764;9.166;2022-07-22T02:59:07;17.90;99.90
14357;DHT22;7262;48.764;9.166;2022-07-22T03:01:34;17.90;99.90
14357;DHT22;7262;48.764;9.166;2022-07-22T03:04:03;18.00;99.90
14357;DHT22;7262;48.764;9.166;2022-07-22T03:06:30;18.00;99.90
14357;DHT22;7262;48.764;9.166;2022-07-22T03:08:57;17.90;99.90
14357;DHT22;7262;48.764;9.166;2022-07-22T03:11:23;17.90;99.90
14357;DHT22;7262;48.764;9.166;2022-07-22T03:13:52;17.90;99.90
14357;DHT22;7262;48.764;9.166;2022-07-22T03:16:19;17.90;99.90
14357;DHT22;7262;48.764;9.166;2022-07-22T03:18:46;17.90;99.90
14357;DHT22;7262;48.764;9.166;2022-07-22T03:21:14;17.90;99.90
14357;DHT22;7262;48.764;9.166;2022-07-22T03:23:41;17.90;99.90
14357;DHT22;7262;48.764;9.166;2022-07-22T03:26:08;17.90;99.90
14357;DHT22;7262;48.764;9.166;2022-07-22T03:28:35;17.90;99.90
14357;DHT22;7262;48.764;9.166;2022-07-22T03:31:01;17.80;99.90
14357;DHT22;7262;48.764;9.166;2022-07-22T03:33:29;17.80;99.90
14357;DHT22;7262;48.764;9.166;2022-07-22T03:35:55;17.80;99.90
14357;DHT22;7262;48.764;9.166;2022-07-22T03:38:24;17.80;99.90
14357;DHT22;7262;48.764;9.166;2022-07-22T03:40:50;17.80;99.90
14357;DHT22;7262;48.764;9.166;2022-07-22T03:43:18;17.80;99.90
14357;DHT22;7262;48.764;9.166;2022-07-22T03:45:45;17.90;99.90
14357;DHT22;7262;48.764;9.166;2022-07-22T03:48:11;17.90;99.90
14357;DHT22;7262;48.764;9.166;2022-07-22T03:50:38;17.90;99.90
14357;DHT22;7262;48.764;9.166;2022-07-22T03:53:05;17.90;99.90
14357;DHT22;7262;48.764;9.166;2022-07-22T03:55:33;17.90;99.90
14357;DHT22;7262;48.764;9.166;2022-07-22T03:58:00;17.80;99.90
14357;DHT22;7262;48.764;9.166;2022-07-22T04:00:27;17.80;99.90
14357;DHT22;7262;48.764;9.166;2022-07-22T04:02:54;17.90;99.90
14357;DHT22;7262;48.764;9.166;2022-07-22T04:05:20;17.90;99.90
14357;DHT22;7262;48.764;9.166;2022-07-22T04:07:47;17.90;99.90
14357;DHT22;7262;48.764;9.166;2022-07-22T04:10:15;17.90;99.90
14357;DHT22;7262;48.764;9.166;2022-07-22T04:12:45;17.90;99.90
14357;DHT22;7262;48.764;9.166;2022-07-22T04:15:13;17.90;99.90
14357;DHT22;7262;48.764;9.166;2022-07-22T04:17:40;17.90;99.90
14357;DHT22;7262;48.764;9.166;2022-07-22T04:20:08;17.90;99.90
14357;DHT22;7262;48.764;9.166;2022-07-22T04:22:35;17.90;99.90
14357;DHT22;7262;48.764;9.166;2022-07-22T04:25:02;18.00;99.90
14357;DHT22;7262;48.764;9.166;2022-07-22T04:27:29;18.00;99.90
14357;DHT22;7262;48.764;9.166;2022-07-22T04:29:57;18.10;99.90
14357;DHT22;7262;48.764;9.166;2022-07-22T04:32:24;18.10;99.90
14357;DHT22;7262;48.764;9.166;2022-07-22T04:34:51;18.20;99.90
14357;DHT22;7262;48.764;9.166;2022-07-22T04:37:18;18.20;99.90
14357;DHT22;7262;48.764;9.166;2022-07-22T04:39:45;18.20;99.90
14357;DHT22;7262;48.764;9.166;2022-07-22T04:42:11;18.30;99.90
14357;DHT22;7262;48.764;9.166;2022-07-22T04:44:38;18.30;99.90
14357;DHT22;7262;48.764;9.166;2022-07-22T04:47:06;18.40;99.90
14357;DHT22;7262;48.764;9.166;2022-07-22T04:49:33;18.50;99.90
14357;DHT22;7262;48.764;9.166;2022-07-22T04:52:01;18.60;99.90
14357;DHT22;7262;48.764;9.166;2022-07-22T04:54:27;18.70;99.90
14357;DHT22;7262;48.764;9.166;2022-07-22T04:56:55;18.70;99.90
14357;DHT22;7262;48.764;9.166;2022-07-22T04:59:21;18.80;99.90
14357;DHT22;7262;48.764;9.166;2022-07-22T05:01:48;18.90;99.90
14357;DHT22;7262;48.764;9.166;2022-07-22T05:04:17;19.00;99.90
14357;DHT22;7262;48.764;9.166;2022-07-22T05:06:43;19.20;99.90
14357;DHT22;7262;48.764;9.166;2022-07-22T05:09:10;19.30;99.90
14357;DHT22;7262;48.764;9.166;2022-07-22T05:11:37;19.40;99.90
14357;DHT22;7262;48.764;9.166;2022-07-22T05:14:04;19.50;99.90
14357;DHT22;7262;48.764;9.166;2022-07-22T05:16:31;19.60;99.90
14357;DHT22;7262;48.764;9.166;2022-07-22T05:18:58;19.70;99.90
14357;DHT22;7262;48.764;9.166;2022-07-22T05:21:26;19.90;99.90
14357;DHT22;7262;48.764;9.166;2022-07-22T05:23:53;20.00;99.90
14357;DHT22;7262;48.764;9.166;2022-07-22T05:26:20;20.20;99.90
14357;DHT22;7262;48.764;9.166;2022-07-22T05:28:47;20.40;99.90
14357;DHT22;7262;48.764;9.166;2022-07-22T05:31:13;20.50;99.90
14357;DHT22;7262;48.764;9.166;2022-07-22T05:33:40;21.10;99.90
14357;DHT22;7262;48.764;9.166;2022-07-22T05:36:07;22.10;99.90
14357;DHT22;7262;48.764;9.166;2022-07-22T05:38:40;22.80;99.90
14357;DHT22;7262;48.764;9.166;2022-07-22T05:41:07;23.50;99.90
14357;DHT22;7262;48.764;9.166;2022-07-22T05:43:33;23.90;99.90
14357;DHT22;7262;48.764;9.166;2022-07-22T05:46:00;24.40;99.90
14357;DHT22;7262;48.764;9.166;2022-07-22T05:48:27;24.80;99.90
14357;DHT22;7262;48.764;9.166;2022-07-22T05:50:54;25.10;99.90
14357;DHT22;7262;48.764;9.166;2022-07-22T05:53:21;25.50;99.90
14357;DHT22;7262;48.764;9.166;2022-07-22T05:55:50;26.20;99.90
14357;DHT22;7262;48.764;9.166;2022-07-22T05:58:18;25.50;99.90
14357;DHT22;7262;48.764;9.166;2022-07-22T06:00:45;25.80;99.90
14357;DHT22;7262;48.764;9.166;2022-07-22T06:03:12;26.00;99.90
14357;DHT22;7262;48.764;9.166;2022-07-22T06:05:39;26.70;99.90
14357;DHT22;7262;48.764;9.166;2022-07-22T06:08:06;27.20;99.90
14357;DHT22;7262;48.764;9.166;2022-07-22T06:10:33;26.50;99.90
14357;DHT22;7262;48.764;9.166;2022-07-22T06:13:01;26.10;99.90
14357;DHT22;7262;48.764;9.166;2022-07-22T06:15:30;27.10;99.90
14357;DHT22;7262;48.764;9.166;2022-07-22T06:17:57;27.50;99.90
14357;DHT22;7262;48.764;9.166;2022-07-22T06:20:24;28.00;99.90
14357;DHT22;7262;48.764;9.166;2022-07-22T06:22:51;28.50;99.90
14357;DHT22;7262;48.764;9.166;2022-07-22T06:25:18;29.00;99.90
14357;DHT22;7262;48.764;9.166;2022-07-22T06:27:45;28.30;99.90
14357;DHT22;7262;48.764;9.166;2022-07-22T06:30:15;28.60;99.90
14357;DHT22;7262;48.764;9.166;2022-07-22T06:32:41;29.00;99.90
14357;DHT22;7262;48.764;9.166;2022-07-22T06:35:08;29.40;99.90
14357;DHT22;7262;48.764;9.166;2022-07-22T06:37:35;29.60;99.90
14357;DHT22;7262;48.764;9.166;2022-07-22T06:40:02;29.60;99.90
14357;DHT22;7262;48.764;9.166;2022-07-22T06:42:29;29.10;99.90
14357;DHT22;7262;48.764;9.166;2022-07-22T06:44:56;29.30;99.90
14357;DHT22;7262;48.764;9.166;2022-07-22T06:47:25;30.00;99.90
14357;DHT22;7262;48.764;9.166;2022-07-22T06:49:52;30.30;99.90
14357;DHT22;7262;48.764;9.166;2022-07-22T06:52:19;30.50;99.90
14357;DHT22;7262;48.764;9.166;2022-07-22T06:54:46;30.30;99.90
14357;DHT22;7262;48.764;9.166;2022-07-22T06:57:13;30.60;99.90
14357;DHT22;7262;48.764;9.166;2022-07-22T06:59:41;30.90;99.90
14357;DHT22;7262;48.764;9.166;2022-07-22T07:02:08;30.20;99.90
14357;DHT22;7262;48.764;9.166;2022-07-22T07:04:36;30.10;99.90
14357;DHT22;7262;48.764;9.166;2022-07-22T07:07:03;29.10;99.90
14357;DHT22;7262;48.764;9.166;2022-07-22T07:09:31;29.10;99.90
14357;DHT22;7262;48.764;9.166;2022-07-22T07:11:58;29.50;99.90
14357;DHT22;7262;48.764;9.166;2022-07-22T07:14:24;30.10;99.90
14357;DHT22;7262;48.764;9.166;2022-07-22T07:16:52;31.00;99.90
14357;DHT22;7262;48.764;9.166;2022-07-22T07:19:18;31.50;99.90
14357;DHT22;7262;48.764;9.166;2022-07-22T07:21:47;31.30;99.90
14357;DHT22;7262;48.764;9.166;2022-07-22T07:24:14;31.30;99.90
14357;DHT22;7262;48.764;9.166;2022-07-22T07:26:41;32.00;99.90
14357;DHT22;7262;48.764;9.166;2022-07-22T07:29:08;31.40;99.90
14357;DHT22;7262;48.764;9.166;2022-07-22T07:31:35;31.40;99.90
14357;DHT22;7262;48.764;9.166;2022-07-22T07:34:02;32.30;99.90
14357;DHT22;7262;48.764;9.166;2022-07-22T07:36:29;32.30;99.90
14357;DHT22;7262;48.764;9.166;2022-07-22T07:38:57;32.40;99.90
14357;DHT22;7262;48.764;9.166;2022-07-22T07:41:24;32.30;99.90
14357;DHT22;7262;48.764;9.166;2022-07-22T07:43:51;32.90;99.90
14357;DHT22;7262;48.764;9.166;2022-07-22T07:46:19;33.30;99.90
14357;DHT22;7262;48.764;9.166;2022-07-22T07:48:46;33.50;99.90
14357;DHT22;7262;48.764;9.166;2022-07-22T07:51:13;33.80;99.90
14357;DHT22;7262;48.764;9.166;2022-07-22T07:53:40;33.80;99.90
14357;DHT22;7262;48.764;9.166;2022-07-22T07:56:08;33.20;99.90
14357;DHT22;7262;48.764;9.166;2022-07-22T07:58:37;32.90;99.90
14357;DHT22;7262;48.764;9.166;2022-07-22T08:01:04;32.80;99.90
14357;DHT22;7262;48.764;9.166;2022-07-22T08:03:31;33.10;99.90
14357;DHT22;7262;48.764;9.166;2022-07-22T08:05:58;33.50;99.90
14357;DHT22;7262;48.764;9.166;2022-07-22T08:08:25;34.00;99.90
14357;DHT22;7262;48.764;9.166;2022-07-22T08:10:52;34.10;99.90
14357;DHT22;7262;48.764;9.166;2022-07-22T08:13:20;34.10;99.90
14357;DHT22;7262;48.764;9.166;2022-07-22T08:15:47;33.10;99.90
14357;DHT22;7262;48.764;9.166;2022-07-22T08:18:14;33.60;99.90
14357;DHT22;7262;48.764;9.166;2022-07-22T08:20:41;33.70;99.90
14357;DHT22;7262;48.764;9.166;2022-07-22T08:23:08;34.60;99.90
14357;DHT22;7262;48.764;9.166;2022-07-22T08:25:35;34.80;99.90
14357;DHT22;7262;48.764;9.166;2022-07-22T08:28:02;35.00;99.90
14357;DHT22;7262;48.764;9.166;2022-07-22T08:30:30;34.90;99.90
14357;DHT22;7262;48.764;9.166;2022-07-22T08:32:57;34.50;99.90
14357;DHT22;7262;48.764;9.166;2022-07-22T08:35:24;34.20;99.90
14357;DHT22;7262;48.764;9.166;2022-07-22T08:37:51;34.50;99.90
14357;DHT22;7262;48.764;9.166;2022-07-22T08:40:18;34.00;99.90
14357;DHT22;7262;48.764;9.166;2022-07-22T08:42:47;34.10;99.90
14357;DHT22;7262;48.764;9.166;2022-07-22T08:45:14;34.50;99.90
14357;DHT22;7262;48.764;9.166;2022-07-22T08:47:44;34.90;99.90
14357;DHT22;7262;48.764;9.166;2022-07-22T08:50:11;35.40;99.90
14357;DHT22;7262;48.764;9.166;2022-07-22T08:52:39;33.70;99.90
14357;DHT22;7262;48.764;9.166;2022-07-22T08:55:06;32.80;99.90
14357;DHT22;7262;48.764;9.166;2022-07-22T08:57:33;33.00;99.90
14357;DHT22;7262;48.764;9.166;2022-07-22T09:00:03;33.70;99.90
14357;DHT22;7262;48.764;9.166;2022-07-22T09:02:35;34.20;99.90
14357;DHT22;7262;48.764;9.166;2022-07-22T09:05:05;33.60;99.90
14357;DHT22;7262;48.764;9.166;2022-07-22T09:07:35;33.80;99.90
14357;DHT22;7262;48.764;9.166;2022-07-22T09:10:03;34.10;99.90
14357;DHT22;7262;48.764;9.166;2022-07-22T09:12:30;33.80;99.90
14357;DHT22;7262;48.764;9.166;2022-07-22T09:14:58;33.70;99.90
14357;DHT22;7262;48.764;9.166;2022-07-22T09:17:27;33.20;99.90
14357;DHT22;7262;48.764;9.166;2022-07-22T09:19:55;33.40;99.90
14357;DHT22;7262;48.764;9.166;2022-07-22T09:22:33;32.00;99.90
14357;DHT22;7262;48.764;9.166;2022-07-22T09:25:09;33.30;99.90
14357;DHT22;7262;48.764;9.166;2022-07-22T09:27:43;33.50;99.90
14357;DHT22;7262;48.764;9.166;2022-07-22T09:30:19;32.40;99.90
14357;DHT22;7262;48.764;9.166;2022-07-22T09:32:46;32.60;99.90
14357;DHT22;7262;48.764;9.166;2022-07-22T09:35:13;33.20;99.90
14357;DHT22;7262;48.764;9.166;2022-07-22T09:37:50;34.00;99.90
14357;DHT22;7262;48.764;9.166;2022-07-22T09:40:18;34.70;99.90
14357;DHT22;7262;48.764;9.166;2022-07-22T09:42:47;34.60;99.90
14357;DHT22;7262;48.764;9.166;2022-07-22T09:45:14;34.70;99.90
14357;DHT22;7262;48.764;9.166;2022-07-22T09:47:46;34.90;99.90
14357;DHT22;7262;48.764;9.166;2022-07-22T09:50:16;34.90;99.90
14357;DHT22;7262;48.764;9.166;2022-07-22T09:52:45;34.60;99.90
14357;DHT22;7262;48.764;9.166;2022-07-22T09:55:14;34.30;99.90
14357;DHT22;7262;48.764;9.166;2022-07-22T09:57:45;34.30;99.90
14357;DHT22;7262;48.764;9.166;2022-07-22T10:00:14;34.50;99.90
14357;DHT22;7262;48.764;9.166;2022-07-22T10:02:44;34.40;99.90
14357;DHT22;7262;48.764;9.166;2022-07-22T10:05:16;34.40;99.90
14357;DHT22;7262;48.764;9.166;2022-07-22T10:07:44;34.20;99.90
14357;DHT22;7262;48.764;9.166;2022-07-22T10:10:12;34.10;99.90
14357;DHT22;7262;48.764;9.166;2022-07-22T10:12:42;34.50;99.90
14357;DHT22;7262;48.764;9.166;2022-07-22T10:15:10;34.30;99.90
14357;DHT22;7262;48.764;9.166;2022-07-22T10:17:37;34.20;99.90
14357;DHT22;7262;48.764;9.166;2022-07-22T10:20:06;33.70;99.90
14357;DHT22;7262;48.764;9.166;2022-07-22T10:25:26;33.50;99.90
14357;DHT22;7262;48.764;9.166;2022-07-22T10:27:57;33.80;99.90
14357;DHT22;7262;48.764;9.166;2022-07-22T10:30:25;34.00;99.90
14357;DHT22;7262;48.764;9.166;2022-07-22T10:33:06;34.20;99.90
14357;DHT22;7262;48.764;9.166;2022-07-22T10:35:34;33.40;99.90
14357;DHT22;7262;48.764;9.166;2022-07-22T10:38:02;32.90;99.90
14357;DHT22;7262;48.764;9.166;2022-07-22T10:40:31;32.90;99.90
14357;DHT22;7262;48.764;9.166;2022-07-22T10:43:08;33.20;99.90
14357;DHT22;7262;48.764;9.166;2022-07-22T10:45:38;33.60;99.90
14357;DHT22;7262;48.764;9.166;2022-07-22T10:48:06;33.90;99.90
14357;DHT22;7262;48.764;9.166;2022-07-22T10:50:44;34.10;99.90
14357;DHT22;7262;48.764;9.166;2022-07-22T10:53:16;34.50;99.90
14357;DHT22;7262;48.764;9.166;2022-07-22T10:55:57;34.90;99.90
14357;DHT22;7262;48.764;9.166;2022-07-22T10:58:42;34.90;99.90
14357;DHT22;7262;48.764;9.166;2022-07-22T11:01:11;35.00;99.90
14357;DHT22;7262;48.764;9.166;2022-07-22T11:03:39;35.10;99.90
14357;DHT22;7262;48.764;9.166;2022-07-22T11:06:26;35.00;99.90
14357;DHT22;7262;48.764;9.166;2022-07-22T11:08:54;34.90;99.90
14357;DHT22;7262;48.764;9.166;2022-07-22T11:11:31;34.40;99.90
14357;DHT22;7262;48.764;9.166;2022-07-22T11:14:00;34.50;99.90
14357;DHT22;7262;48.764;9.166;2022-07-22T11:16:27;34.50;99.90
14357;DHT22;7262;48.764;9.166;2022-07-22T11:18:55;34.40;99.90
14357;DHT22;7262;48.764;9.166;2022-07-22T11:21:22;34.60;99.90
14357;DHT22;7262;48.764;9.166;2022-07-22T11:23:50;34.80;99.90
14357;DHT22;7262;48.764;9.166;2022-07-22T11:26:20;34.60;99.90
14357;DHT22;7262;48.764;9.166;2022-07-22T11:28:51;34.90;99.90
14357;DHT22;7262;48.764;9.166;2022-07-22T11:31:20;34.80;99.70
14357;DHT22;7262;48.764;9.166;2022-07-22T11:33:47;35.00;98.50
14357;DHT22;7262;48.764;9.166;2022-07-22T11:36:14;34.70;98.70
14357;DHT22;7262;48.764;9.166;2022-07-22T11:38:42;35.30;98.00
14357;DHT22;7262;48.764;9.166;2022-07-22T11:41:09;35.90;96.40
14357;DHT22;7262;48.764;9.166;2022-07-22T11:43:39;35.90;94.60
14357;DHT22;7262;48.764;9.166;2022-07-22T11:46:05;35.90;94.00
14357;DHT22;7262;48.764;9.166;2022-07-22T11:48:34;35.80;95.10
14357;DHT22;7262;48.764;9.166;2022-07-22T11:51:01;35.90;94.80
14357;DHT22;7262;48.764;9.166;2022-07-22T11:53:28;35.80;95.60
14357;DHT22;7262;48.764;9.166;2022-07-22T11:55:56;35.90;96.30
14357;DHT22;7262;48.764;9.166;2022-07-22T11:58:33;35.90;96.00
14357;DHT22;7262;48.764;9.166;2022-07-22T12:01:00;36.10;95.90
14357;DHT22;7262;48.764;9.166;2022-07-22T12:03:27;36.50;95.30
14357;DHT22;7262;48.764;9.166;2022-07-22T12:05:56;36.60;94.90
14357;DHT22;7262;48.764;9.166;2022-07-22T12:08:23;36.80;94.40
14357;DHT22;7262;48.764;9.166;2022-07-22T12:10:50;37.00;94.20
14357;DHT22;7262;48.764;9.166;2022-07-22T12:13:17;37.20;93.80
14357;DHT22;7262;48.764;9.166;2022-07-22T12:15:44;37.00;92.80
14357;DHT22;7262;48.764;9.166;2022-07-22T12:18:14;36.60;92.10
14357;DHT22;7262;48.764;9.166;2022-07-22T12:20:42;36.90;92.30
14357;DHT22;7262;48.764;9.166;2022-07-22T12:23:11;37.10;92.50
14357;DHT22;7262;48.764;9.166;2022-07-22T12:25:57;36.60;92.60
14357;DHT22;7262;48.764;9.166;2022-07-22T12:28:26;36.90;92.20
14357;DHT22;7262;48.764;9.166;2022-07-22T12:30:55;36.80;92.50
14357;DHT22;7262;48.764;9.166;2022-07-22T12:33:24;37.30;91.90
14357;DHT22;7262;48.764;9.166;2022-07-22T12:36:02;37.40;92.20
14357;DHT22;7262;48.764;9.166;2022-07-22T12:38:30;37.30;91.90
14357;DHT22;7262;48.764;9.166;2022-07-22T12:43:39;37.60;91.30
14357;DHT22;7262;48.764;9.166;2022-07-22T12:46:06;37.60;91.20
14357;DHT22;7262;48.764;9.166;2022-07-22T12:48:34;37.20;91.20
14357;DHT22;7262;48.764;9.166;2022-07-22T12:51:00;37.20;91.10
14357;DHT22;7262;48.764;9.166;2022-07-22T12:53:27;37.50;91.00
14357;DHT22;7262;48.764;9.166;2022-07-22T12:55:56;37.40;91.20
14357;DHT22;7262;48.764;9.166;2022-07-22T12:58:27;37.70;91.20
14357;DHT22;7262;48.764;9.166;2022-07-22T13:00:54;37.90;90.60
14357;DHT22;7262;48.764;9.166;2022-07-22T13:03:22;38.30;89.80
14357;DHT22;7262;48.764;9.166;2022-07-22T13:05:51;38.00;89.20
14357;DHT22;7262;48.764;9.166;2022-07-22T13:08:18;38.40;88.40
14357;DHT22;7262;48.764;9.166;2022-07-22T13:10:45;38.80;86.50
14357;DHT22;7262;48.764;9.166;2022-07-22T13:13:13;39.10;86.70
14357;DHT22;7262;48.764;9.166;2022-07-22T13:15:40;39.40;86.20
14357;DHT22;7262;48.764;9.166;2022-07-22T13:18:07;39.90;85.10
14357;DHT22;7262;48.764;9.166;2022-07-22T13:20:34;39.80;84.60
14357;DHT22;7262;48.764;9.166;2022-07-22T13:23:01;39.90;84.80
14357;DHT22;7262;48.764;9.166;2022-07-22T13:25:27;39.30;83.70
14357;DHT22;7262;48.764;9.166;2022-07-22T13:27:56;39.10;83.70
14357;DHT22;7262;48.764;9.166;2022-07-22T13:30:24;39.30;83.70
14357;DHT22;7262;48.764;9.166;2022-07-22T13:32:51;38.80;84.10
14357;DHT22;7262;48.764;9.166;2022-07-22T13:35:19;39.00;84.30
14357;DHT22;7262;48.764;9.166;2022-07-22T13:37:47;39.70;82.40
14357;DHT22;7262;48.764;9.166;2022-07-22T13:40:15;39.40;81.90
14357;DHT22;7262;48.764;9.166;2022-07-22T13:42:42;39.30;81.60
14357;DHT22;7262;48.764;9.166;2022-07-22T13:45:09;39.40;81.30
14357;DHT22;7262;48.764;9.166;2022-07-22T13:47:40;39.10;81.50
14357;DHT22;7262;48.764;9.166;2022-07-22T13:50:08;39.00;82.70
14357;DHT22;7262;48.764;9.166;2022-07-22T13:52:35;39.30;82.30
14357;DHT22;7262;48.764;9.166;2022-07-22T13:55:02;39.20;80.00
14357;DHT22;7262;48.764;9.166;2022-07-22T13:57:29;38.80;80.50
14357;DHT22;7262;48.764;9.166;2022-07-22T13:59:56;39.10;79.40
14357;DHT22;7262;48.764;9.166;2022-07-22T14:02:24;39.60;78.50
14357;DHT22;7262;48.764;9.166;2022-07-22T14:04:53;39.10;79.00
14357;DHT22;7262;48.764;9.166;2022-07-22T14:07:19;39.10;77.70
14357;DHT22;7262;48.764;9.166;2022-07-22T14:09:46;39.70;76.00
14357;DHT22;7262;48.764;9.166;2022-07-22T14:12:13;39.80;75.70
14357;DHT22;7262;48.764;9.166;2022-07-22T14:14:41;39.70;76.90
14357;DHT22;7262;48.764;9.166;2022-07-22T14:17:08;40.20;76.30
14357;DHT22;7262;48.764;9.166;2022-07-22T14:19:35;40.30;76.10
14357;DHT22;7262;48.764;9.166;2022-07-22T14:22:03;40.30;76.20
14357;DHT22;7262;48.764;9.166;2022-07-22T14:24:30;40.30;75.40
14357;DHT22;7262;48.764;9.166;2022-07-22T14:26:57;40.40;76.00
14357;DHT22;7262;48.764;9.166;2022-07-22T14:29:23;40.60;75.20
14357;DHT22;7262;48.764;9.166;2022-07-22T14:31:51;40.80;75.10
14357;DHT22;7262;48.764;9.166;2022-07-22T14:34:18;40.70;75.90
14357;DHT22;7262;48.764;9.166;2022-07-22T14:36:45;40.70;75.50
14357;DHT22;7262;48.764;9.166;2022-07-22T14:39:13;39.90;75.70
14357;DHT22;7262;48.764;9.166;2022-07-22T14:41:40;39.50;76.50
14357;DHT22;7262;48.764;9.166;2022-07-22T14:44:11;38.80;78.00
14357;DHT22;7262;48.764;9.166;2022-07-22T14:46:38;37.90;78.80
14357;DHT22;7262;48.764;9.166;2022-07-22T14:49:08;37.10;79.80
14357;DHT22;7262;48.764;9.166;2022-07-22T14:51:35;36.40;81.50
14357;DHT22;7262;48.764;9.166;2022-07-22T14:54:02;36.00;83.00
14357;DHT22;7262;48.764;9.166;2022-07-22T14:56:30;35.10;83.80
14357;DHT22;7262;48.764;9.166;2022-07-22T14:58:57;35.00;84.20
14357;DHT22;7262;48.764;9.166;2022-07-22T15:01:24;34.90;84.70
14357;DHT22;7262;48.764;9.166;2022-07-22T15:03:51;34.70;85.40
14357;DHT22;7262;48.764;9.166;2022-07-22T15:06:20;34.10;86.60
14357;DHT22;7262;48.764;9.166;2022-07-22T15:08:49;33.80;87.30
14357;DHT22;7262;48.764;9.166;2022-07-22T15:11:16;33.60;86.80
14357;DHT22;7262;48.764;9.166;2022-07-22T15:13:44;33.60;87.30
14357;DHT22;7262;48.764;9.166;2022-07-22T15:16:11;33.40;87.80
14357;DHT22;7262;48.764;9.166;2022-07-22T15:18:39;33.20;89.40
14357;DHT22;7262;48.764;9.166;2022-07-22T15:21:06;33.40;88.80
14357;DHT22;7262;48.764;9.166;2022-07-22T15:23:32;33.50;88.20
14357;DHT22;7262;48.764;9.166;2022-07-22T15:26:02;33.50;89.20
14357;DHT22;7262;48.764;9.166;2022-07-22T15:28:29;33.30;89.30
14357;DHT22;7262;48.764;9.166;2022-07-22T15:30:59;33.40;89.50
14357;DHT22;7262;48.764;9.166;2022-07-22T15:33:26;33.10;89.50
14357;DHT22;7262;48.764;9.166;2022-07-22T15:35:53;33.10;90.00
14357;DHT22;7262;48.764;9.166;2022-07-22T15:38:20;32.90;90.00
14357;DHT22;7262;48.764;9.166;2022-07-22T15:40:47;32.80;90.20
14357;DHT22;7262;48.764;9.166;2022-07-22T15:43:15;33.00;90.30
14357;DHT22;7262;48.764;9.166;2022-07-22T15:45:42;33.20;90.30
14357;DHT22;7262;48.764;9.166;2022-07-22T15:48:11;33.40;90.30
14357;DHT22;7262;48.764;9.166;2022-07-22T15:50:38;33.40;89.70
14357;DHT22;7262;48.764;9.166;2022-07-22T15:53:04;33.40;89.70
14357;DHT22;7262;48.764;9.166;2022-07-22T15:55:31;33.20;90.10